createdAt,value
2019-05-30T00:00:30.024Z,99.90
2019-05-30T00:03:00.279Z,99.90
2019-05-30T00:05:30.365Z,99.90
2019-05-30T00:08:00.301Z,99.90
2019-05-30T00:10:30.102Z,99.90
2019-05-30T00:13:00.636Z,99.90
2019-05-30T00:15:30.153Z,99.90
2019-05-30T00:18:00.898Z,99.90
2019-05-30T00:20:30.341Z,99.90
2019-05-30T00:23:00.973Z,99.90
2019-05-30T00:25:30.803Z,99.90
2019-05-30T00:28:01.111Z,99.90
2019-05-30T00:30:30.905Z,99.90
2019-05-30T00:33:00.699Z,99.90
2019-05-30T00:35:30.107Z,99.90
2019-05-30T00:37:59.737Z,99.90
2019-05-30T00:40:29.237Z,99.90
2019-05-30T00:42:58.565Z,99.90
2019-05-30T00:45:27.981Z,99.90
2019-05-30T00:47:58.081Z,99.90
2019-05-30T00:50:27.532Z,99.90
2019-05-30T00:52:56.927Z,99.90
2019-05-30T00:55:26.373Z,99.90
2019-05-30T00:57:56.665Z,99.90
2019-05-30T01:00:42.958Z,99.90
2019-05-30T01:03:02.877Z,99.90
2019-05-30T01:05:31.147Z,99.90
2019-05-30T01:08:00.896Z,99.90
2019-05-30T01:10:31.052Z,99.90
2019-05-30T01:13:01.371Z,99.90
2019-05-30T01:15:30.836Z,99.90
2019-05-30T01:18:01.086Z,99.90
2019-05-30T01:20:30.755Z,99.90
2019-05-30T01:23:01.207Z,99.90
2019-05-30T01:25:30.842Z,99.90
2019-05-30T01:28:01.602Z,99.90
2019-05-30T01:30:31.362Z,99.90
2019-05-30T01:33:01.805Z,99.90
2019-05-30T01:35:31.225Z,99.90
2019-05-30T01:38:01.751Z,99.90
2019-05-30T01:40:31.379Z,99.90
2019-05-30T01:43:02.084Z,99.90
2019-05-30T01:45:32.021Z,99.90
2019-05-30T01:48:02.895Z,99.90
2019-05-30T01:50:32.328Z,99.90
2019-05-30T01:53:02.638Z,99.90
2019-05-30T01:55:32.187Z,99.90
2019-05-30T01:58:03.114Z,99.90
2019-05-30T02:00:40.549Z,99.90
2019-05-30T02:03:10.289Z,99.90
2019-05-30T02:05:39.647Z,99.90
2019-05-30T02:08:10.103Z,99.90
2019-05-30T02:10:40.062Z,99.90
2019-05-30T02:13:09.969Z,99.90
2019-05-30T02:15:40.272Z,99.90
2019-05-30T02:18:10.149Z,99.90
2019-05-30T02:20:39.594Z,99.90
2019-05-30T02:23:09.976Z,99.90
2019-05-30T02:25:39.924Z,99.90
2019-05-30T02:28:10.392Z,99.90
2019-05-30T02:30:40.045Z,99.90
2019-05-30T02:33:12.348Z,99.90
2019-05-30T02:35:40.869Z,99.90
2019-05-30T02:38:11.875Z,99.90
2019-05-30T02:40:41.180Z,99.90
2019-05-30T02:43:12.124Z,99.90
2019-05-30T02:45:41.706Z,99.90
2019-05-30T03:00:01.925Z,99.90
2019-05-30T05:03:11.192Z,99.90
2019-05-30T06:19:25.346Z,99.90
2019-05-30T07:01:22.047Z,99.90
2019-05-30T07:03:54.707Z,99.90
2019-05-30T07:06:27.519Z,99.90
2019-05-30T07:08:58.656Z,99.90
2019-05-30T07:11:29.290Z,99.90
2019-05-30T07:14:01.318Z,99.90
2019-05-30T07:16:31.422Z,99.90
2019-05-30T07:19:37.835Z,99.90
2019-05-30T07:26:25.692Z,99.90
2019-05-30T07:37:01.049Z,98.90
2019-05-30T07:39:33.263Z,97.60
2019-05-30T07:42:06.353Z,95.60
2019-05-30T07:44:30.880Z,96.30
2019-05-30T07:46:59.664Z,96.90
2019-05-30T07:49:28.459Z,91.60
2019-05-30T07:51:57.168Z,91.70
2019-05-30T07:54:26.854Z,93.10
2019-05-30T07:56:55.708Z,91.90
2019-05-30T07:59:24.429Z,90.70
2019-05-30T08:01:53.262Z,90.50
2019-05-30T08:04:22.062Z,88.00
2019-05-30T08:06:51.928Z,88.60
2019-05-30T08:09:20.714Z,88.70
2019-05-30T08:11:52.520Z,87.60
2019-05-30T08:14:21.657Z,85.30
2019-05-30T08:16:50.597Z,83.20
2019-05-30T08:19:19.696Z,84.00
2019-05-30T08:21:48.582Z,86.30
2019-05-30T08:24:17.851Z,79.40
2019-05-30T08:26:50.539Z,83.80
2019-05-30T08:29:19.510Z,76.80
2019-05-30T08:31:48.513Z,79.50
2019-05-30T08:34:17.771Z,80.20
2019-05-30T08:36:46.639Z,73.00
2019-05-30T08:39:15.703Z,74.20
2019-05-30T08:41:44.720Z,74.80
2019-05-30T08:44:13.699Z,74.90
2019-05-30T08:46:42.696Z,79.80
2019-05-30T08:49:11.585Z,73.30
2019-05-30T08:51:40.773Z,72.20
2019-05-30T08:54:13.455Z,72.50
2019-05-30T08:56:40.658Z,70.50
2019-05-30T08:59:09.927Z,69.80
2019-05-30T09:01:40.486Z,73.50
2019-05-30T09:04:17.391Z,70.60
2019-05-30T09:06:44.195Z,70.70
2019-05-30T09:09:13.353Z,69.00
2019-05-30T09:11:42.410Z,67.40
2019-05-30T09:14:11.290Z,70.40
2019-05-30T09:16:40.168Z,63.80
2019-05-30T09:19:09.085Z,74.90
2019-05-30T09:21:39.758Z,65.30
2019-05-30T09:24:11.116Z,68.50
2019-05-30T09:26:45.487Z,64.20
2019-05-30T09:29:19.003Z,71.20
2019-05-30T09:31:49.918Z,63.90
2019-05-30T09:34:21.522Z,66.60
2019-05-30T09:36:51.361Z,62.90
2019-05-30T09:43:10.056Z,61.00
2019-05-30T09:45:39.608Z,59.50
2019-05-30T09:48:10.096Z,65.70
2019-05-30T09:50:46.748Z,65.20
2019-05-30T09:53:19.173Z,59.90
2019-05-30T09:55:51.472Z,59.80
2019-05-30T09:58:21.595Z,61.00
2019-05-30T10:01:02.077Z,62.20
2019-05-30T10:07:11.044Z,57.90
2019-05-30T10:09:41.206Z,58.60
2019-05-30T10:12:10.542Z,57.10
2019-05-30T10:39:49.538Z,57.80
2019-05-30T10:42:23.782Z,55.80
2019-05-30T10:48:51.041Z,57.20
2019-05-30T10:54:51.485Z,58.90
2019-05-30T10:57:28.445Z,56.20
2019-05-30T11:00:16.424Z,57.60
2019-05-30T11:02:46.075Z,56.30
2019-05-30T11:05:17.491Z,58.30
2019-05-30T11:08:02.057Z,60.40
2019-05-30T11:10:40.415Z,54.50
2019-05-30T11:16:40.155Z,55.50
2019-05-30T11:19:11.325Z,53.90
2019-05-30T11:21:43.463Z,53.50
2019-05-30T11:24:14.763Z,53.60
2019-05-30T11:26:46.052Z,53.30
2019-05-30T11:29:16.436Z,59.80
2019-05-30T11:31:46.022Z,52.90
2019-05-30T11:34:17.302Z,54.90
2019-05-30T11:36:46.154Z,54.80
2019-05-30T11:39:15.872Z,52.70
2019-05-30T11:41:49.072Z,54.60
2019-05-30T11:44:28.468Z,57.20
2019-05-30T11:47:07.469Z,53.80
2019-05-30T11:49:42.702Z,51.60
2019-05-30T11:52:38.152Z,53.00
2019-05-30T11:55:10.686Z,53.80
2019-05-30T12:00:16.629Z,51.30
2019-05-30T12:09:38.661Z,52.90
2019-05-30T12:12:09.310Z,51.70
2019-05-30T12:14:38.210Z,51.80
2019-05-30T12:20:38.970Z,51.10
2019-05-30T12:23:07.973Z,54.40
2019-05-30T12:28:15.634Z,50.00
2019-05-30T12:30:56.689Z,51.90
2019-05-30T12:33:20.805Z,51.60
2019-05-30T12:35:54.380Z,50.60
2019-05-30T12:38:25.282Z,51.40
2019-05-30T12:40:54.722Z,52.20
2019-05-30T12:43:25.934Z,49.50
2019-05-30T12:45:54.961Z,50.70
2019-05-30T12:48:24.593Z,55.50
2019-05-30T12:50:53.598Z,56.00
2019-05-30T12:53:23.154Z,50.40
2019-05-30T12:55:54.834Z,49.70
2019-05-30T12:58:23.797Z,50.60
2019-05-30T13:00:54.944Z,51.80
2019-05-30T13:03:23.984Z,52.00
2019-05-30T13:05:55.060Z,52.40
2019-05-30T13:08:28.774Z,51.10
2019-05-30T13:10:59.724Z,50.40
2019-05-30T13:13:29.637Z,51.00
2019-05-30T13:20:26.135Z,50.00
2019-05-30T13:22:56.147Z,50.40
2019-05-30T13:25:30.154Z,50.80
2019-05-30T13:28:03.218Z,50.90
2019-05-30T13:30:30.098Z,53.50
2019-05-30T13:32:59.026Z,49.70
2019-05-30T13:35:28.108Z,49.70
2019-05-30T13:38:01.489Z,52.50
2019-05-30T13:40:30.662Z,50.50
2019-05-30T13:43:00.138Z,52.30
2019-05-30T13:45:29.004Z,49.80
2019-05-30T13:47:58.313Z,52.50
2019-05-30T13:50:30.864Z,53.40
2019-05-30T13:53:02.976Z,54.10
2019-05-30T13:55:33.169Z,52.80
2019-05-30T13:58:05.711Z,50.90
2019-05-30T14:00:35.876Z,49.70
2019-05-30T14:03:10.342Z,52.00
2019-05-30T14:05:39.401Z,50.60
2019-05-30T14:08:53.685Z,52.40
2019-05-30T14:11:22.682Z,51.00
2019-05-30T14:14:07.146Z,50.00
2019-05-30T14:23:03.817Z,54.20
2019-05-30T14:25:33.842Z,50.10
2019-05-30T14:28:12.110Z,53.90
2019-05-30T14:30:43.633Z,51.50
2019-05-30T14:33:14.553Z,50.50
2019-05-30T14:35:45.540Z,52.20
2019-05-30T14:38:20.819Z,50.90
2019-05-30T14:40:52.720Z,52.40
2019-05-30T14:43:23.871Z,53.20
2019-05-30T14:45:53.316Z,51.50
2019-05-30T14:48:23.710Z,52.60
2019-05-30T14:50:55.215Z,52.00
2019-05-30T14:53:30.388Z,53.40
2019-05-30T14:56:03.215Z,53.40
2019-05-30T14:58:34.246Z,53.60
2019-05-30T15:01:05.070Z,54.80
2019-05-30T15:03:36.124Z,53.30
2019-05-30T15:06:10.517Z,53.10
2019-05-30T15:08:40.331Z,54.40
2019-05-30T15:11:13.676Z,53.90
2019-05-30T15:13:49.304Z,55.00
2019-05-30T15:16:23.045Z,55.50
2019-05-30T15:19:04.709Z,54.70
2019-05-30T15:21:54.055Z,57.00
2019-05-30T15:24:26.916Z,54.80
2019-05-30T15:26:55.941Z,54.40
2019-05-30T15:29:32.340Z,54.50
2019-05-30T15:32:04.702Z,56.00
2019-05-30T15:34:34.209Z,55.70
2019-05-30T15:37:03.480Z,55.90
2019-05-30T15:39:34.526Z,56.70
2019-05-30T15:42:12.183Z,55.40
2019-05-30T15:44:41.875Z,58.40
2019-05-30T15:47:11.995Z,58.10
2019-05-30T15:49:45.810Z,56.20
2019-05-30T15:52:17.574Z,56.70
2019-05-30T15:54:49.165Z,57.60
2019-05-30T15:57:25.090Z,55.50
2019-05-30T15:59:53.937Z,57.70
2019-05-30T16:02:22.896Z,56.80
2019-05-30T16:04:52.599Z,56.90
2019-05-30T16:10:52.907Z,58.50
2019-05-30T16:13:22.079Z,61.20
2019-05-30T16:15:51.533Z,58.90
2019-05-30T16:18:27.712Z,59.70
2019-05-30T16:35:32.021Z,65.30
2019-05-30T16:38:01.058Z,59.40
2019-05-30T16:40:32.930Z,60.80
2019-05-30T16:43:04.450Z,59.80
2019-05-30T16:46:16.291Z,61.00
2019-05-30T16:53:37.516Z,61.10
2019-05-30T17:07:06.835Z,64.20
2019-05-30T17:25:08.311Z,63.00
2019-05-30T17:34:41.597Z,64.60
2019-05-30T17:37:22.234Z,70.40
2019-05-30T17:40:18.514Z,73.20
2019-05-30T17:44:03.444Z,74.90
2019-05-30T17:50:29.774Z,76.90
2019-05-30T17:52:59.800Z,77.50
2019-05-30T18:03:10.753Z,78.90
2019-05-30T18:09:55.142Z,79.90
2019-05-30T18:19:41.622Z,81.60
2019-05-30T18:22:09.302Z,81.90
2019-05-30T18:28:10.360Z,84.50
2019-05-30T18:31:00.333Z,87.10
2019-05-30T19:39:25.559Z,99.90
2019-05-30T20:12:51.851Z,99.90
2019-05-30T20:43:39.015Z,99.90
2019-05-30T20:46:22.356Z,99.90
2019-05-30T20:48:41.067Z,99.90
2019-05-30T20:51:20.691Z,99.90
2019-05-30T20:53:41.244Z,99.90
2019-05-30T20:56:12.056Z,99.90
2019-05-30T20:58:41.801Z,99.90
2019-05-30T21:01:10.675Z,99.90
2019-05-30T21:03:39.765Z,99.90
2019-05-30T21:06:11.037Z,99.90
2019-05-30T21:08:41.265Z,99.90
2019-05-30T21:11:12.278Z,99.90
2019-05-30T21:13:42.339Z,99.90
2019-05-30T21:16:13.551Z,99.90
2019-05-30T21:18:46.064Z,99.90
2019-05-30T21:21:15.266Z,99.90
2019-05-30T21:23:46.641Z,99.90
2019-05-30T21:26:15.969Z,99.90
2019-05-30T21:28:48.693Z,99.90
2019-05-30T21:31:18.222Z,99.90
2019-05-30T21:33:48.262Z,99.90
2019-05-30T21:36:17.982Z,99.90
2019-05-30T21:38:55.210Z,99.90
2019-05-30T21:52:20.960Z,99.90
2019-05-30T21:54:50.280Z,99.90
2019-05-30T21:57:21.308Z,99.90
2019-05-30T21:59:50.822Z,99.90
2019-05-30T22:02:21.474Z,99.90
2019-05-30T22:04:50.823Z,99.90
2019-05-30T22:07:21.347Z,99.90
2019-05-30T22:09:52.591Z,99.90
2019-05-30T22:12:21.460Z,99.90
2019-05-30T22:14:51.992Z,99.90
2019-05-30T22:17:21.016Z,99.90
2019-05-30T22:19:50.142Z,99.90
2019-05-30T22:22:19.108Z,99.90
2019-05-30T22:24:48.502Z,99.90
2019-05-30T22:27:17.471Z,99.90
2019-05-30T22:29:46.442Z,99.90
2019-05-30T22:32:15.353Z,99.90
2019-05-30T22:34:46.714Z,99.90
2019-05-30T22:37:16.123Z,99.90
2019-05-30T22:39:44.963Z,99.90
2019-05-30T22:42:15.027Z,99.90
2019-05-30T22:44:44.011Z,99.90
2019-05-30T22:47:13.065Z,99.90
2019-05-30T22:49:41.959Z,99.90
2019-05-30T22:52:10.846Z,99.90
2019-05-30T22:54:39.909Z,99.90
2019-05-30T22:57:08.804Z,99.90
2019-05-30T22:59:37.664Z,99.90
2019-05-30T23:02:06.620Z,99.90
2019-05-30T23:04:35.820Z,99.90
2019-05-30T23:07:04.815Z,99.90
2019-05-30T23:09:33.772Z,99.90
2019-05-30T23:12:02.557Z,99.90
2019-05-30T23:14:31.661Z,99.90
2019-05-30T23:17:00.637Z,99.90
2019-05-30T23:19:29.501Z,99.90
2019-05-30T23:21:58.606Z,99.90
2019-05-30T23:24:27.785Z,99.90
2019-05-30T23:26:57.853Z,99.90
2019-05-30T23:29:27.249Z,99.90
2019-05-30T23:31:56.236Z,99.90
2019-05-30T23:34:25.128Z,99.90
2019-05-30T23:36:54.556Z,99.90
2019-05-30T23:39:23.607Z,99.90
2019-05-30T23:41:52.939Z,99.90
2019-05-30T23:44:22.109Z,99.90
2019-05-30T23:46:51.463Z,99.90
2019-05-30T23:49:20.542Z,99.90
2019-05-30T23:51:51.943Z,99.90
2019-05-30T23:54:21.134Z,99.90
2019-05-30T23:56:50.507Z,99.90
2019-05-30T23:59:19.796Z,99.90
